ADDS METAR Data INFO
IDs: Format: Raw Decoded Include TAF

Data at: 2053 UTC 24 Jun 2017

KGKY 242049Z 35008KT 10SM BKN025 BKN035 OVC046 25/21 A3011 RMK AO2 $
KGKY 242037Z 35009KT 10SM FEW023 BKN035 OVC046 26/21 A3010 RMK AO2 T02560211 $
KGKY 242024Z 33010KT 10SM BKN023 BKN030 OVC035 25/21 A3010 RMK AO2 T02500206 $
KGKY 242002Z 02010KT 10SM SCT020 OVC032 26/21 A3010 RMK AO2 T02560211 $
KGKY 241953Z 01007KT 10SM BKN019 BKN027 OVC032 26/21 A3011 RMK AO2 SLP187 T02560206 $
KGKY 241933Z 36010KT 10SM BKN017 BKN023 25/22 A3009 RMK AO2 T02500217 $
KGKY 241853Z 05012KT 10SM CLR 24/21 A3007 RMK AO2 SLP175 T02390211 $
KGKY 241753Z 09003KT 10SM SCT110 22/21 A3009 RMK AO2 RAE07 SLP182 P0000 60039 T02220206 10222 20211 58028 $
KGKY 241653Z 26004KT 10SM -RA FEW060 BKN095 OVC110 22/20 A3013 RMK AO2 SLP193 P0001 T02170200 $
KGKY 241553Z 02005KT 10SM -RA BKN110 22/19 A3017 RMK AO2 SLP206 P0005 T02170194 $
KGKY 241453Z 02012G19KT 6SM RA BR SCT008 BKN070 OVC120 22/20 A3018 RMK AO2 SLP209 P0014 60033 T02170200 51032 $
KGKY 241449Z 02013G22KT 5SM RA BR SCT008 BKN070 OVC110 22/21 A3018 RMK AO2 P0013 $
KGKY 241409Z 35010KT 7SM RA BKN005 BKN090 OVC110 22/22 A3016 RMK AO2 LTG DSNT E P0004 T02170217 $
KGKY 241353Z 01005KT 5SM RA BR FEW005 SCT095 OVC110 22/22 A3015 RMK AO2 LTG DSNT NE AND E TSE07B19E34 SLP200 P0014 T02170217 $
KGKY 241340Z 33007KT 6SM RA BR SCT100 BKN120 22/21 A3014 RMK AO2 LTG DSNT NE TSE07B19E34 P0009 T02170211 $
KGKY 241325Z 32007KT 8SM TSRA FEW045 SCT110 22/21 A3013 RMK AO2 LTG DSNT ALQDS TSE07B19 P0005 T02170211 $
KGKY 241313Z 33007KT 9SM VCTS RA SCT045 BKN120 22/21 A3013 RMK AO2 LTG DSNT NW-E TSE07 P0002 T02170211 $
KGKY 241253Z 29008KT 10SM -TSRA SCT035 BKN046 OVC110 22/21 A3012 RMK AO2 LTG DSNT N-E TSB18E41B47 SLP189 P0005 T02170211 $
KGKY 241230Z 31010G20KT 10SM -TSRA FEW007 SCT018 BKN040 22/22 A3010 RMK AO2 LTG DSNT ALQDS TSB18 P0004 T02170217 $
KGKY 241225Z 31016G20KT 10SM -TSRA BKN011 BKN026 OVC039 22/22 A3010 RMK AO2 LTG DSNT N-E TSB18 CIG 006V021 P0004 T02220217 $
KGKY 241218Z 31011KT 9SM -TSRA SCT008 BKN018 OVC090 22/22 A3011 RMK AO2 LTG DSNT N AND NE TSB18 P0004 T02220217 $
KGKY 241210Z 30011G16KT 8SM VCTS -RA FEW008 BKN014 OVC095 22/22 A3011 RMK AO2 LTG DSNT W-NE PRESRR P0003 T02220217 $
KGKY 241153Z 32010KT 6SM VCTS +RA BR SCT070 OVC090 22/21 A3008 RMK AO2 LTG DSNT W-NE RAE01B26 PRESRR SLP176 P0008 60141 70141 T02170211 10300 20211 53046 $
KGKY 241144Z AUTO 29004KT 5SM VCTS RA BR FEW070 OVC095 22/21 A3006 RMK AO2 LTG DSNT W-NE RAE01B26 P0006 T02170211 $
KGKY 241120Z AUTO 18004KT 10SM FEW014 SCT070 OVC100 22/21 A3003 RMK AO2 LTG DSNT W-N RAE01 P0000 T02220211 $
KGKY 241105Z AUTO 18004KT 10SM VCTS BKN100 OVC120 22/21 A3002 RMK AO2 LTG DSNT SE AND W AND NW RAE01 PRESRR P0000 T02220211 $
KGKY 241053Z AUTO 19004KT 10SM -RA BKN110 22/21 A3000 RMK AO2 LTG DSNT ALQDS RAE07B14 SLP150 P0003 T02220211 $
KGKY 241009Z AUTO 08008KT 10SM SCT011 SCT095 22/22 A2998 RMK AO2 LTG DSNT E AND S AND NW RAE07 P0000 T02220217 $
KGKY 240953Z AUTO 07006KT 10SM -RA BKN011 BKN085 BKN110 23/22 A2999 RMK AO2 LTG DSNT E-SW TSE02B06E21 SLP144 P0000 T02280217 $
KGKY 240927Z AUTO 12004KT 10SM -RA FEW090 SCT110 22/22 A2996 RMK AO2 LTG DSNT E-SW TSE02B06E21 P0000 T02220217 $
KGKY 240853Z AUTO VRB03KT 10SM -TSRA FEW070 22/21 A2994 RMK AO2 LTG DSNT ALQDS RAE03B19 TSE26B38 SLP130 P0001 60130 T02170211 50010 $
KGKY 240844Z AUTO 16008KT 10SM -TSRA FEW075 SCT090 22/21 A2993 RMK AO2 LTG DSNT ALQDS RAE03B19 TSE26B38 P0000 T02170211 $
KGKY 240832Z AUTO 25006KT 10SM VCTS -RA FEW050 SCT070 BKN110 22/21 A2995 RMK AO2 LTG DSNT ALQDS RAE03B19 TSE26 P0000 T02170211 $
KGKY 240753Z AUTO 22010G17KT 10SM -TSRA FEW070 BKN110 22/21 A2996 RMK AO2 LTG DSNT ALQDS SLP135 P0065 T02170206 $
KGKY 240733Z AUTO 22005KT 5SM TSRA BR BKN041 BKN070 OVC100 21/20 A2999 RMK AO2 LTG DSNT ALQDS P0064 T02110200 $
KGKY 240714Z AUTO 14011KT 2 1/2SM +TSRA BR OVC031 21/21 A2999 RMK AO2 LTG DSNT ALQDS P0048 T02110206 $
KGKY 240653Z AUTO 36008G28KT 330V040 +TSRA BKN017 BKN022 OVC038 22/21 A2999 RMK AO2 PK WND 07030/0621 WSHFT 0615 LTG DSNT ALQDS RAB21 SLP145 P0064 T02170211 $
KGKY 240645Z AUTO 07018G23KT 1SM +TSRA BR BKN015 BKN020 OVC043 23/23 A3000 RMK AO2 PK WND 07030/0621 WSHFT 0615 LTG DSNT ALQDS RAB21 P0043 T02280228 $
KGKY 240638Z AUTO 06017G30KT 2SM +TSRA BR SCT020 BKN029 OVC043 23/22 A3001 RMK AO2 PK WND 07030/0621 WSHFT 0615 LTG DSNT ALQDS RAB21 PRESRR P0016 T02280222
KGKY 240635Z AUTO 08020G30KT 4SM +TSRA BR FEW020 BKN032 OVC043 23/22 A2999 RMK AO2 PK WND 07030/0621 WSHFT 0615 LTG DSNT ALQDS RAB21 PRESRR P0008 T02330222
KGKY 240553Z AUTO 13008KT 10SM TS SCT045 BKN055 BKN070 30/26 A2991 RMK AO2 LTG DSNT ALQDS TSB26E45B51 SLP118 T03000256 10350 20294 403720239 51008
KGKY 240532Z AUTO 13009KT 10SM TS FEW050 SCT065 30/25 A2991 RMK AO2 LTG DSNT NW-E TSB26 T03000250
KGKY 240453Z AUTO 11007KT 10SM FEW065 30/26 A2992 RMK AO2 LTG DSNT N AND NE SLP119 T03000256
KGKY 240353Z AUTO 10004KT 10SM CLR 31/25 A2989 RMK AO2 LTG DSNT E SLP109 T03060250
KGKY 240253Z AUTO 10007KT 10SM CLR 32/25 A2986 RMK AO2 SLP101 T03220250 51026
KGKY 240153Z AUTO 09011KT 10SM CLR 33/23 A2984 RMK AO2 SLP092 T03330233
KGKY 240053Z 11006KT 10SM CLR 34/23 A2981 RMK AO2 SLP084 T03390228
KGKY 232353Z 12010KT 10SM CLR 35/24 A2978 RMK AO2 SLP074 T03500239 10372 20333 58004
KGKY 232253Z 12009KT 10SM CLR 36/23 A2978 RMK AO2 SLP074 T03610233
KGKY 232153Z 11007KT 10SM CLR 36/23 A2980 RMK AO2 SLP078 T03610228
KGKY 232053Z 11007KT 10SM CLR 36/23 A2979 RMK AO2 SLP078 T03610233 58005
KGKY 231953Z 12006KT 10SM CLR 35/24 A2980 RMK AO2 SLP080 T03500239
KGKY 231853Z VRB06KT 10SM CLR 35/24 A2981 RMK AO2 SLP083 T03500239
KGKY 231753Z 15007KT 10SM CLR 33/24 A2981 RMK AO2 SLP085 T03330244 10333 20250 53002
KGKY 231653Z 14007KT 10SM CLR 32/24 A2980 RMK AO2 SLP080 T03170244
KGKY 231553Z 14006KT 10SM CLR 31/24 A2980 RMK AO2 SLP080 T03060244
KGKY 231453Z VRB04KT 10SM CLR 28/24 A2981 RMK AO2 SLP083 T02830244 53008 $
KGKY 231403Z 16008KT 10SM SCT010 27/24 A2979 RMK AO2 T02670244 $
KGKY 231353Z 18008KT 10SM BKN010 27/24 A2978 RMK AO2 CIG 008V012 SLP074 T02670244 $
KGKY 231301Z 16007KT 10SM BKN008 26/24 A2978 RMK AO2 T02560244 $
KGKY 231253Z 17005KT 10SM SCT008 26/24 A2978 RMK AO2 SLP073 T02560244 $
KGKY 231249Z 16006KT 10SM SCT008 26/24 A2978 RMK AO2 $
KGKY 231153Z 16009KT 10SM CLR 25/24 A2974 RMK AO2 SLP059 T02500239 10256 20239 51005 $
KGKY 231053Z AUTO 17005KT 10SM CLR 24/24 A2973 RMK AO2 SLP058 T02440239 $
KGKY 230953Z AUTO 16004KT 10SM CLR 24/23 A2973 RMK AO2 SLP057 T02440228 $


Page loaded:  20:53 UTC  |   01:53 PM Pacific  |   02:53 PM Mountain  |   03:53 PM Central  |   04:53 PM Eastern

 

ADVISORIES

FORECASTS

FORECASTS

OBSERVATIONS

USER TOOLS

ABOUT US